createdAt,value
2023-06-29T00:00:28.620Z,87.98
2023-06-29T00:01:28.734Z,88.17
2023-06-29T00:02:28.736Z,88.84
2023-06-29T00:03:28.840Z,86.86
2023-06-29T00:04:28.792Z,89.33
2023-06-29T00:05:28.896Z,88.49
2023-06-29T00:06:28.918Z,92.83
2023-06-29T00:07:28.946Z,89.90
2023-06-29T00:08:28.972Z,90.34
2023-06-29T00:09:29.015Z,89.60
2023-06-29T00:10:29.069Z,91.26
2023-06-29T00:11:29.071Z,89.37
2023-06-29T00:12:29.160Z,90.17
2023-06-29T00:13:29.193Z,92.37
2023-06-29T00:14:29.241Z,90.65
2023-06-29T00:15:29.252Z,91.98
2023-06-29T00:16:29.367Z,92.46
2023-06-29T00:17:29.388Z,89.25
2023-06-29T00:18:29.463Z,89.38
2023-06-29T00:19:29.477Z,88.23
2023-06-29T00:20:29.547Z,91.18
2023-06-29T00:21:29.674Z,92.46
2023-06-29T00:22:29.736Z,90.75
2023-06-29T00:23:29.622Z,92.72
2023-06-29T00:24:29.660Z,90.81
2023-06-29T00:25:29.686Z,93.00
2023-06-29T00:26:29.750Z,90.96
2023-06-29T00:27:29.786Z,91.48
2023-06-29T00:28:29.817Z,91.67
2023-06-29T00:29:29.860Z,91.78
2023-06-29T00:30:30.001Z,91.39
2023-06-29T00:31:29.967Z,90.73
2023-06-29T00:32:30.076Z,90.88
2023-06-29T00:33:30.090Z,91.07
2023-06-29T00:34:30.117Z,90.90
2023-06-29T00:35:30.164Z,91.19
2023-06-29T00:36:30.228Z,91.96
2023-06-29T00:37:30.238Z,88.84
2023-06-29T00:38:30.330Z,94.18
2023-06-29T00:39:30.354Z,92.07
2023-06-29T00:40:30.369Z,89.42
2023-06-29T00:41:30.412Z,91.87
2023-06-29T00:42:30.489Z,90.30
2023-06-29T00:43:30.602Z,92.03
2023-06-29T00:44:30.606Z,90.66
2023-06-29T00:45:30.644Z,89.32
2023-06-29T00:46:30.755Z,91.97
2023-06-29T00:47:30.764Z,92.29
2023-06-29T00:48:30.805Z,91.10
2023-06-29T00:49:30.869Z,91.65
2023-06-29T00:50:30.924Z,90.25
2023-06-29T00:51:30.965Z,93.16
2023-06-29T00:52:30.973Z,93.66
2023-06-29T00:53:31.009Z,93.40
2023-06-29T00:54:31.085Z,91.44
2023-06-29T00:55:31.129Z,89.86
2023-06-29T00:56:31.165Z,91.34
2023-06-29T00:57:31.238Z,92.80
2023-06-29T00:58:31.289Z,90.12
2023-06-29T00:59:31.326Z,90.16
2023-06-29T01:00:31.422Z,94.22
2023-06-29T01:01:31.462Z,92.83
2023-06-29T01:02:31.652Z,90.45
2023-06-29T01:03:31.656Z,90.80
2023-06-29T01:04:31.637Z,92.17
2023-06-29T01:05:31.675Z,93.91
2023-06-29T01:06:31.701Z,92.30
2023-06-29T01:07:31.872Z,90.50
2023-06-29T01:08:31.819Z,94.37
2023-06-29T01:09:31.944Z,92.56
2023-06-29T01:10:31.912Z,93.00
2023-06-29T01:11:31.988Z,92.16
2023-06-29T01:12:32.036Z,90.64
2023-06-29T01:13:32.111Z,95.26
2023-06-29T01:14:32.167Z,95.33
2023-06-29T01:15:32.225Z,92.03
2023-06-29T01:16:32.293Z,92.45
2023-06-29T01:17:32.420Z,93.16
2023-06-29T01:18:32.404Z,91.65
2023-06-29T01:19:32.476Z,92.37
2023-06-29T01:20:32.541Z,91.88
2023-06-29T01:21:32.570Z,91.70
2023-06-29T01:22:32.690Z,91.57
2023-06-29T01:23:32.816Z,91.56
2023-06-29T01:24:32.753Z,90.01
2023-06-29T01:25:32.805Z,91.37
2023-06-29T01:26:32.832Z,90.65
2023-06-29T01:27:32.924Z,93.24
2023-06-29T01:28:32.996Z,92.10
2023-06-29T01:29:33.046Z,92.94
2023-06-29T01:30:33.588Z,92.09
2023-06-29T01:31:33.162Z,92.94
2023-06-29T01:32:33.202Z,93.22
2023-06-29T01:33:33.278Z,93.62
2023-06-29T01:34:33.341Z,94.88
2023-06-29T01:35:33.392Z,93.79
2023-06-29T01:36:33.424Z,93.14
2023-06-29T01:37:33.465Z,93.80
2023-06-29T01:38:33.547Z,92.89
2023-06-29T01:39:33.625Z,92.68
2023-06-29T01:40:33.734Z,92.46
2023-06-29T01:41:33.749Z,92.10
2023-06-29T01:42:33.793Z,92.12
2023-06-29T01:43:33.868Z,93.09
2023-06-29T01:44:33.914Z,91.65
2023-06-29T01:45:33.962Z,91.66
2023-06-29T01:46:34.222Z,93.93
2023-06-29T01:47:34.149Z,93.47
2023-06-29T01:48:34.164Z,91.30
2023-06-29T01:49:34.194Z,93.02
2023-06-29T01:50:34.258Z,91.75
2023-06-29T01:51:34.322Z,92.41
2023-06-29T01:52:34.375Z,93.37
2023-06-29T01:53:34.426Z,94.07
2023-06-29T01:54:34.524Z,91.88
2023-06-29T01:55:34.550Z,91.24
2023-06-29T01:56:34.599Z,92.31
2023-06-29T01:57:34.665Z,95.00
2023-06-29T01:58:34.686Z,92.61
2023-06-29T01:59:34.770Z,95.32
2023-06-29T02:00:37.073Z,91.42
2023-06-29T02:01:34.994Z,97.23
2023-06-29T02:02:34.883Z,94.48
2023-06-29T02:03:34.986Z,93.73
2023-06-29T02:04:34.810Z,93.55
2023-06-29T02:05:34.808Z,93.99
2023-06-29T02:06:34.796Z,93.56
2023-06-29T02:07:34.848Z,94.45
2023-06-29T02:08:34.796Z,94.00
2023-06-29T02:09:34.765Z,93.49
2023-06-29T02:10:34.782Z,93.86
2023-06-29T02:11:34.737Z,93.61
2023-06-29T02:12:34.760Z,94.91
2023-06-29T02:13:34.715Z,94.57
2023-06-29T02:14:34.755Z,90.89
2023-06-29T02:15:34.722Z,93.34
2023-06-29T02:16:34.869Z,91.48
2023-06-29T02:17:34.745Z,93.20
2023-06-29T02:18:34.712Z,91.73
2023-06-29T02:19:34.711Z,92.97
2023-06-29T02:20:34.701Z,92.41
2023-06-29T02:21:34.710Z,91.66
2023-06-29T02:22:34.680Z,93.27
2023-06-29T02:23:34.684Z,91.80
2023-06-29T02:24:34.676Z,93.74
2023-06-29T02:25:34.642Z,94.98
2023-06-29T02:26:34.648Z,94.05
2023-06-29T02:27:34.645Z,91.55
2023-06-29T02:28:34.720Z,92.51
2023-06-29T02:29:34.760Z,93.11
2023-06-29T02:30:34.833Z,91.45
2023-06-29T02:31:34.917Z,93.76
2023-06-29T02:32:34.961Z,93.45
2023-06-29T02:33:35.008Z,92.15
2023-06-29T02:34:35.083Z,92.71
2023-06-29T02:35:35.141Z,91.57
2023-06-29T02:36:35.176Z,93.87
2023-06-29T02:37:35.280Z,92.52
2023-06-29T02:38:35.350Z,93.37
2023-06-29T02:39:35.352Z,92.39
2023-06-29T02:40:35.418Z,90.96
2023-06-29T02:41:35.505Z,90.79
2023-06-29T02:42:35.541Z,91.49
2023-06-29T02:43:35.659Z,92.62
2023-06-29T02:44:35.703Z,91.44
2023-06-29T02:45:35.808Z,93.84
2023-06-29T02:46:35.843Z,94.33
2023-06-29T02:47:35.928Z,91.40
2023-06-29T02:48:35.957Z,91.74
2023-06-29T02:49:35.987Z,92.01
2023-06-29T02:50:36.040Z,92.50
2023-06-29T02:51:36.119Z,93.23
2023-06-29T02:52:36.183Z,91.50
2023-06-29T02:53:36.243Z,88.83
2023-06-29T02:54:36.333Z,92.29
2023-06-29T02:55:36.360Z,92.81
2023-06-29T02:56:36.489Z,89.95
2023-06-29T02:57:36.445Z,92.28
2023-06-29T02:58:36.520Z,91.79
2023-06-29T02:59:36.612Z,92.41
2023-06-29T03:00:36.641Z,93.67
2023-06-29T03:01:36.731Z,89.33
2023-06-29T03:02:36.833Z,90.75
2023-06-29T03:03:36.836Z,94.38
2023-06-29T03:04:36.857Z,93.51
2023-06-29T03:05:36.943Z,91.85
2023-06-29T03:06:36.978Z,91.01
2023-06-29T03:07:37.114Z,92.18
2023-06-29T03:08:37.070Z,93.20
2023-06-29T03:09:37.192Z,93.38
2023-06-29T03:10:37.242Z,90.53
2023-06-29T03:11:37.211Z,93.53
2023-06-29T03:12:37.221Z,89.87
2023-06-29T03:13:37.249Z,90.12
2023-06-29T03:14:37.325Z,89.54
2023-06-29T03:15:37.332Z,89.39
2023-06-29T03:16:37.414Z,92.36
2023-06-29T03:17:37.402Z,89.89
2023-06-29T03:18:37.369Z,91.93
2023-06-29T03:19:37.469Z,90.69
2023-06-29T03:20:37.427Z,91.21
2023-06-29T03:21:37.462Z,92.08
2023-06-29T03:22:37.644Z,90.92
2023-06-29T03:23:37.556Z,89.89
2023-06-29T03:24:37.566Z,91.23
2023-06-29T03:25:37.570Z,90.41
2023-06-29T03:26:37.609Z,91.96
2023-06-29T03:27:37.681Z,92.34
2023-06-29T03:28:37.618Z,93.01
2023-06-29T03:29:37.709Z,90.09
2023-06-29T03:30:37.721Z,91.31
2023-06-29T03:31:37.766Z,91.24
2023-06-29T03:32:37.784Z,91.69
2023-06-29T03:33:37.768Z,91.47
2023-06-29T03:34:37.778Z,90.40
2023-06-29T03:35:37.842Z,89.89
2023-06-29T03:36:37.861Z,92.22
2023-06-29T03:37:37.907Z,90.03
2023-06-29T03:38:37.901Z,89.30
2023-06-29T03:39:37.916Z,89.93
2023-06-29T03:40:37.978Z,89.78
2023-06-29T03:41:37.988Z,91.83
2023-06-29T03:42:37.943Z,89.42
2023-06-29T03:43:37.992Z,91.08
2023-06-29T03:44:38.150Z,91.15
2023-06-29T03:45:38.060Z,91.03
2023-06-29T03:46:38.071Z,92.04
2023-06-29T03:47:38.194Z,90.93
2023-06-29T03:48:38.241Z,92.42
2023-06-29T03:49:38.245Z,90.94
2023-06-29T03:50:38.251Z,91.86
2023-06-29T03:51:38.257Z,89.46
2023-06-29T03:52:38.279Z,93.20
2023-06-29T03:53:38.314Z,86.95
2023-06-29T03:54:38.308Z,89.78
2023-06-29T03:55:38.318Z,89.88
2023-06-29T03:56:38.396Z,90.99
2023-06-29T03:57:38.388Z,90.58
2023-06-29T03:58:38.438Z,93.29
2023-06-29T03:59:38.415Z,87.48
2023-06-29T04:00:38.464Z,89.25
2023-06-29T04:01:38.708Z,89.49
2023-06-29T04:02:38.515Z,91.01
2023-06-29T04:03:38.624Z,90.00
2023-06-29T04:04:38.545Z,88.98
2023-06-29T04:05:38.565Z,88.60
2023-06-29T04:06:38.557Z,87.99
2023-06-29T04:07:38.619Z,90.98
2023-06-29T04:08:38.670Z,90.32
2023-06-29T04:09:38.696Z,88.09
2023-06-29T04:10:38.736Z,88.76
2023-06-29T04:11:38.805Z,88.70
2023-06-29T04:12:38.871Z,86.84
2023-06-29T04:13:38.864Z,88.28
2023-06-29T04:14:38.882Z,88.27
2023-06-29T04:15:38.967Z,86.44
2023-06-29T04:16:39.080Z,86.93
2023-06-29T04:17:39.057Z,87.24
2023-06-29T04:18:39.137Z,88.14
2023-06-29T04:19:39.122Z,88.01
2023-06-29T04:20:39.209Z,86.06
2023-06-29T04:21:39.301Z,84.73
2023-06-29T04:22:39.316Z,84.27
2023-06-29T04:23:39.432Z,82.63
2023-06-29T04:24:39.465Z,82.15
2023-06-29T04:25:39.472Z,82.75
2023-06-29T04:26:39.559Z,82.12
2023-06-29T04:27:39.626Z,83.41
2023-06-29T04:28:39.672Z,80.68
2023-06-29T04:29:39.675Z,80.26
2023-06-29T04:30:39.763Z,81.60
2023-06-29T04:31:39.845Z,78.48
2023-06-29T04:32:40.052Z,79.42
2023-06-29T04:33:39.912Z,78.09
2023-06-29T04:34:39.937Z,76.60
2023-06-29T04:35:40.012Z,77.46
2023-06-29T04:36:40.029Z,75.87
2023-06-29T04:37:40.115Z,75.49
2023-06-29T04:38:40.211Z,73.41
2023-06-29T04:39:40.222Z,76.55
2023-06-29T04:40:40.278Z,76.76
2023-06-29T04:41:40.641Z,76.61
2023-06-29T04:42:40.385Z,76.04
2023-06-29T04:43:40.522Z,74.40
2023-06-29T04:44:40.497Z,73.89
2023-06-29T04:45:40.615Z,74.50
2023-06-29T04:46:40.810Z,74.27
2023-06-29T04:47:40.823Z,77.25
2023-06-29T04:48:40.752Z,73.66
2023-06-29T04:49:40.952Z,76.14
2023-06-29T04:50:40.908Z,72.79
2023-06-29T04:51:40.988Z,73.21
2023-06-29T04:52:41.025Z,71.46
2023-06-29T04:53:41.076Z,75.40
2023-06-29T04:54:41.146Z,73.40
2023-06-29T04:55:41.336Z,73.07
2023-06-29T04:56:41.224Z,70.66
2023-06-29T04:57:41.296Z,73.53
2023-06-29T04:58:41.377Z,73.95
2023-06-29T04:59:41.424Z,72.43
2023-06-29T05:00:41.501Z,71.63
2023-06-29T05:01:41.576Z,73.86
2023-06-29T05:02:41.698Z,73.25
2023-06-29T05:03:41.693Z,72.75
2023-06-29T05:04:41.732Z,70.89
2023-06-29T05:05:42.032Z,72.49
2023-06-29T05:06:41.850Z,72.06
2023-06-29T05:07:41.923Z,71.86
2023-06-29T05:08:41.972Z,74.23
2023-06-29T05:09:42.039Z,72.74
2023-06-29T05:10:42.136Z,69.79
2023-06-29T05:11:42.193Z,68.53
2023-06-29T05:12:42.182Z,71.35
2023-06-29T05:13:42.242Z,69.57
2023-06-29T05:14:42.299Z,68.92
2023-06-29T05:15:42.567Z,69.94
2023-06-29T05:16:42.476Z,70.69
2023-06-29T05:17:42.500Z,68.80
2023-06-29T05:18:42.541Z,69.90
2023-06-29T05:19:42.607Z,68.24
2023-06-29T05:20:42.661Z,70.30
2023-06-29T05:21:42.706Z,67.40
2023-06-29T05:22:42.745Z,68.01
2023-06-29T05:23:42.824Z,69.48
2023-06-29T05:24:42.884Z,67.19
2023-06-29T05:25:43.171Z,65.24
2023-06-29T05:26:42.950Z,64.68
2023-06-29T05:27:43.004Z,63.07
2023-06-29T05:28:49.836Z,63.59
2023-06-29T05:29:44.053Z,61.32
2023-06-29T05:30:43.055Z,44.75
2023-06-29T05:31:43.095Z,37.33
2023-06-29T05:32:43.157Z,24.04
2023-06-29T05:33:43.116Z,15.31
2023-06-29T05:34:43.013Z,25.00
2023-06-29T05:35:43.217Z,25.00
2023-06-29T05:36:43.017Z,25.00
2023-06-29T05:37:43.005Z,25.48
2023-06-29T05:38:42.984Z,27.47
2023-06-29T05:39:42.985Z,25.99
2023-06-29T05:40:43.399Z,28.22
2023-06-29T05:41:42.963Z,25.59
2023-06-29T05:42:43.026Z,25.00
2023-06-29T05:43:43.052Z,25.12
2023-06-29T05:44:43.067Z,25.78
2023-06-29T05:45:43.161Z,27.27
2023-06-29T05:46:43.103Z,25.51
2023-06-29T05:47:43.261Z,26.28
2023-06-29T05:48:43.152Z,28.75
2023-06-29T05:49:43.119Z,28.01
2023-06-29T05:50:43.332Z,24.67
2023-06-29T05:51:43.235Z,29.46
2023-06-29T05:52:43.110Z,28.03
2023-06-29T05:53:43.129Z,26.28
2023-06-29T05:54:43.128Z,25.00
2023-06-29T05:55:43.197Z,31.73
2023-06-29T05:56:43.255Z,34.89
2023-06-29T05:57:43.285Z,41.26
2023-06-29T05:58:43.362Z,48.38
2023-06-29T05:59:43.380Z,50.75
2023-06-29T06:00:43.638Z,56.46
2023-06-29T06:01:43.660Z,58.66
2023-06-29T06:02:43.558Z,57.83
2023-06-29T06:03:43.523Z,60.25
2023-06-29T06:04:43.516Z,57.77
2023-06-29T06:05:43.472Z,62.48
2023-06-29T06:06:43.482Z,63.70
2023-06-29T06:07:43.495Z,62.75
2023-06-29T06:08:43.535Z,63.69
2023-06-29T06:09:43.608Z,59.56
2023-06-29T06:10:43.752Z,61.77
2023-06-29T06:11:43.654Z,63.73
2023-06-29T06:12:43.687Z,65.99
2023-06-29T06:13:43.774Z,72.19
2023-06-29T06:14:43.895Z,69.94
2023-06-29T06:15:43.919Z,69.00
2023-06-29T06:16:44.248Z,67.63
2023-06-29T06:17:44.109Z,73.01
2023-06-29T06:18:44.024Z,67.14
2023-06-29T06:19:44.082Z,73.32
2023-06-29T06:20:44.453Z,73.61
2023-06-29T06:21:44.203Z,75.30
2023-06-29T06:22:44.215Z,78.45
2023-06-29T06:23:44.330Z,73.69
2023-06-29T06:24:44.262Z,72.11
2023-06-29T06:25:44.332Z,74.21
2023-06-29T06:26:44.346Z,70.70
2023-06-29T06:27:44.413Z,68.89
2023-06-29T06:28:44.384Z,69.88
2023-06-29T06:29:44.449Z,52.72
2023-06-29T06:30:44.669Z,40.18
2023-06-29T06:31:44.643Z,33.95
2023-06-29T06:32:44.666Z,25.00
2023-06-29T06:33:44.583Z,25.00
2023-06-29T06:34:44.591Z,28.66
2023-06-29T06:35:44.650Z,31.06
2023-06-29T06:36:44.640Z,27.41
2023-06-29T06:37:44.660Z,31.21
2023-06-29T06:38:49.994Z,34.60
2023-06-29T06:39:45.688Z,23.33
2023-06-29T06:40:45.128Z,17.06
2023-06-29T06:41:44.645Z,10.66
2023-06-29T06:42:44.644Z,4.98
2023-06-29T06:43:44.651Z,7.36
2023-06-29T06:44:44.623Z,24.81
2023-06-29T06:45:44.610Z,27.66
2023-06-29T06:46:44.716Z,37.16
2023-06-29T06:47:44.768Z,44.76
2023-06-29T06:48:44.588Z,53.90
2023-06-29T06:49:44.593Z,56.40
2023-06-29T06:50:44.753Z,55.41
2023-06-29T06:51:44.614Z,63.01
2023-06-29T06:52:44.577Z,63.75
2023-06-29T06:53:44.546Z,62.35
2023-06-29T06:54:44.617Z,68.91
2023-06-29T06:55:44.686Z,74.37
2023-06-29T06:56:44.712Z,50.26
2023-06-29T06:57:44.689Z,49.61
2023-06-29T06:58:44.699Z,53.88
2023-06-29T06:59:44.701Z,59.02
2023-06-29T07:00:44.918Z,61.95
2023-06-29T07:01:44.743Z,45.39
2023-06-29T07:02:44.811Z,37.81
2023-06-29T07:03:44.728Z,36.18
2023-06-29T07:04:44.730Z,36.45
2023-06-29T07:05:44.909Z,39.65
2023-06-29T07:06:44.822Z,34.40
2023-06-29T07:07:44.853Z,43.23
2023-06-29T07:08:44.983Z,46.46
2023-06-29T07:09:45.005Z,39.12
2023-06-29T07:10:45.297Z,36.79
2023-06-29T07:11:45.253Z,44.79
2023-06-29T07:12:45.149Z,50.08
2023-06-29T07:13:45.293Z,58.31
2023-06-29T07:14:45.214Z,65.04
2023-06-29T07:15:45.271Z,67.67
2023-06-29T07:16:45.347Z,76.42
2023-06-29T07:17:45.331Z,81.59
2023-06-29T07:18:45.345Z,89.19
2023-06-29T07:24:06.178Z,107.88
2023-06-29T07:24:45.351Z,108.86
2023-06-29T07:25:45.637Z,114.55
2023-06-29T07:26:45.291Z,125.52
2023-06-29T07:27:45.314Z,143.15
2023-06-29T07:28:45.453Z,168.39
2023-06-29T07:29:45.329Z,175.23
2023-06-29T07:30:45.343Z,180.27
2023-06-29T07:31:45.307Z,186.65
2023-06-29T07:32:45.379Z,196.02
2023-06-29T07:33:45.251Z,201.13
2023-06-29T07:34:45.265Z,210.64
2023-06-29T07:35:45.562Z,194.38
2023-06-29T07:36:45.714Z,171.25
2023-06-29T07:37:45.232Z,165.51
2023-06-29T07:38:45.186Z,143.13
2023-06-29T07:39:45.245Z,120.63
2023-06-29T07:40:46.536Z,121.69
2023-06-29T07:41:45.237Z,121.83
2023-06-29T07:42:45.208Z,121.86
2023-06-29T07:43:45.270Z,124.96
2023-06-29T07:44:45.191Z,131.35
2023-06-29T07:45:45.343Z,144.16
2023-06-29T07:46:45.183Z,151.73
2023-06-29T07:47:45.262Z,157.54
2023-06-29T07:48:45.264Z,166.21
2023-06-29T07:49:45.157Z,171.91
2023-06-29T07:50:45.104Z,177.00
2023-06-29T07:51:45.109Z,185.34
2023-06-29T07:52:45.113Z,192.48
2023-06-29T07:53:45.129Z,201.43
2023-06-29T07:54:45.124Z,203.90
2023-06-29T07:55:45.243Z,209.99
2023-06-29T07:58:45.124Z,217.68
2023-06-29T07:59:45.121Z,220.53
2023-06-29T08:00:45.177Z,226.94
2023-06-29T08:01:45.122Z,238.77
2023-06-29T08:02:45.169Z,252.75
2023-06-29T08:04:01.078Z,249.99
2023-06-29T08:06:51.328Z,250.77
2023-06-29T08:07:46.157Z,251.20
2023-06-29T08:08:45.248Z,255.06
2023-06-29T08:09:45.045Z,262.90
2023-06-29T08:10:45.176Z,276.65
2023-06-29T08:11:45.012Z,289.32
2023-06-29T08:12:45.011Z,267.75
2023-06-29T08:13:45.020Z,247.59
2023-06-29T08:14:45.043Z,249.46
2023-06-29T08:15:44.968Z,249.02
2023-06-29T08:16:44.997Z,250.42
2023-06-29T08:17:45.028Z,250.00
2023-06-29T08:18:45.175Z,248.31
2023-06-29T08:19:44.918Z,248.72
2023-06-29T08:20:45.150Z,250.41
2023-06-29T08:21:44.918Z,246.32
2023-06-29T08:22:44.935Z,246.30
2023-06-29T08:23:44.942Z,240.98
2023-06-29T08:24:44.900Z,218.33
2023-06-29T08:25:44.935Z,209.36
2023-06-29T08:26:45.663Z,201.76
2023-06-29T08:27:45.004Z,200.30
2023-06-29T08:28:45.071Z,196.90
2023-06-29T08:29:45.076Z,194.70
2023-06-29T08:30:45.255Z,196.41
2023-06-29T08:31:45.217Z,188.74
2023-06-29T08:32:45.257Z,191.90
2023-06-29T08:33:45.319Z,189.35
2023-06-29T08:34:45.307Z,184.40
2023-06-29T08:35:45.342Z,177.96
2023-06-29T08:36:45.418Z,174.58
2023-06-29T08:37:45.447Z,164.57
2023-06-29T08:38:45.533Z,159.46
2023-06-29T08:39:45.602Z,151.98
2023-06-29T08:40:45.843Z,144.22
2023-06-29T08:41:45.745Z,136.74
2023-06-29T08:42:45.724Z,131.00
2023-06-29T08:43:45.739Z,132.80
2023-06-29T08:44:45.799Z,136.55
2023-06-29T08:45:45.806Z,136.48
2023-06-29T08:46:45.876Z,134.68
2023-06-29T08:47:45.922Z,135.44
2023-06-29T08:48:45.964Z,137.75
2023-06-29T08:49:46.015Z,141.13
2023-06-29T08:50:46.213Z,141.55
2023-06-29T08:51:46.135Z,141.16
2023-06-29T08:52:46.240Z,140.03
2023-06-29T08:53:46.257Z,141.52
2023-06-29T08:54:46.285Z,140.50
2023-06-29T08:55:46.381Z,136.26
2023-06-29T08:56:46.427Z,132.72
2023-06-29T08:57:46.516Z,131.62
2023-06-29T08:58:46.506Z,130.23
2023-06-29T08:59:46.666Z,133.34
2023-06-29T09:00:46.943Z,137.64
2023-06-29T09:01:46.621Z,140.11
2023-06-29T09:02:46.827Z,141.17
2023-06-29T09:03:46.912Z,141.69
2023-06-29T09:04:46.765Z,142.27
2023-06-29T09:05:46.963Z,142.17
2023-06-29T09:06:46.857Z,141.97
2023-06-29T09:07:46.943Z,143.73
2023-06-29T09:08:47.036Z,145.02
2023-06-29T09:09:46.982Z,142.76
2023-06-29T09:10:47.071Z,142.89
2023-06-29T09:11:47.008Z,139.57
2023-06-29T09:12:47.029Z,139.83
2023-06-29T09:13:47.104Z,138.23
2023-06-29T09:14:47.191Z,137.63
2023-06-29T09:15:47.197Z,137.74
2023-06-29T09:16:47.146Z,136.51
2023-06-29T09:17:47.453Z,138.29
2023-06-29T09:18:47.255Z,138.72
2023-06-29T09:19:47.270Z,141.78
2023-06-29T09:20:47.525Z,144.38
2023-06-29T09:21:48.298Z,142.39
2023-06-29T09:22:47.444Z,142.60
2023-06-29T09:23:49.238Z,138.48
2023-06-29T09:25:01.462Z,139.33
2023-06-29T09:25:48.472Z,139.55
2023-06-29T09:26:47.777Z,139.79
2023-06-29T09:27:47.376Z,139.94
2023-06-29T09:28:47.373Z,139.98
2023-06-29T09:29:47.377Z,140.63
2023-06-29T09:30:47.452Z,138.76
2023-06-29T09:31:47.903Z,131.04
2023-06-29T09:32:47.389Z,125.73
2023-06-29T09:33:47.856Z,123.24
2023-06-29T09:34:47.366Z,119.90
2023-06-29T09:35:47.492Z,112.30
2023-06-29T09:36:47.329Z,109.61
2023-06-29T09:37:47.289Z,98.94
2023-06-29T09:38:47.285Z,99.26
2023-06-29T09:39:47.308Z,96.09
2023-06-29T09:40:47.362Z,99.64
2023-06-29T09:41:47.338Z,104.69
2023-06-29T09:42:47.820Z,103.67
2023-06-29T09:43:47.328Z,103.69
2023-06-29T09:44:47.336Z,99.03
2023-06-29T09:45:47.730Z,92.46
2023-06-29T09:49:06.577Z,94.08
2023-06-29T09:49:47.420Z,94.29
2023-06-29T09:50:47.772Z,95.86
2023-06-29T09:51:47.324Z,99.54
2023-06-29T09:52:47.368Z,100.62
2023-06-29T09:53:47.324Z,107.66
2023-06-29T09:54:47.821Z,103.39
2023-06-29T09:55:47.318Z,101.48
2023-06-29T09:56:47.304Z,100.93
2023-06-29T09:57:47.307Z,100.30
2023-06-29T09:58:47.748Z,93.66
2023-06-29T09:59:47.335Z,97.98
2023-06-29T10:00:47.514Z,101.18
2023-06-29T10:01:47.288Z,98.16
2023-06-29T10:02:47.354Z,98.73
2023-06-29T10:03:47.286Z,98.12
2023-06-29T10:04:47.301Z,104.90
2023-06-29T10:05:47.263Z,108.59
2023-06-29T10:06:47.371Z,101.96
2023-06-29T10:07:47.301Z,105.96
2023-06-29T10:08:47.224Z,109.27
2023-06-29T10:09:47.186Z,108.72
2023-06-29T10:10:47.308Z,113.65
2023-06-29T10:11:47.197Z,115.05
2023-06-29T10:12:47.217Z,117.88
2023-06-29T10:13:47.224Z,118.98
2023-06-29T10:14:47.285Z,118.38
2023-06-29T10:15:47.193Z,122.66
2023-06-29T10:16:47.202Z,124.86
2023-06-29T10:17:47.178Z,128.06
2023-06-29T10:18:47.220Z,125.60
2023-06-29T10:19:47.339Z,131.81
2023-06-29T10:20:47.366Z,129.17
2023-06-29T10:21:47.136Z,130.02
2023-06-29T10:22:47.179Z,134.62
2023-06-29T10:23:47.204Z,135.84
2023-06-29T10:24:47.116Z,141.64
2023-06-29T10:25:47.119Z,123.50
2023-06-29T10:26:47.328Z,107.64
2023-06-29T10:27:47.112Z,99.24
2023-06-29T10:28:47.095Z,92.03
2023-06-29T10:29:47.045Z,83.44
2023-06-29T10:30:47.277Z,77.26
2023-06-29T10:31:47.059Z,78.83
2023-06-29T10:32:47.077Z,78.41
2023-06-29T10:33:47.282Z,81.38
2023-06-29T10:34:47.082Z,83.03
2023-06-29T10:35:47.039Z,85.50
2023-06-29T10:36:47.106Z,89.38
2023-06-29T10:37:47.019Z,92.93
2023-06-29T10:38:47.304Z,98.75
2023-06-29T10:39:46.997Z,102.66
2023-06-29T10:41:48.020Z,112.87
2023-06-29T10:42:47.102Z,117.20
2023-06-29T10:43:47.171Z,121.76
2023-06-29T10:44:47.217Z,126.66
2023-06-29T10:45:47.273Z,126.86
2023-06-29T10:46:47.470Z,132.32
2023-06-29T10:47:47.473Z,134.99
2023-06-29T10:48:49.115Z,139.82
2023-06-29T10:49:47.498Z,139.53
2023-06-29T10:50:47.645Z,139.03
2023-06-29T10:51:47.747Z,141.99
2023-06-29T10:52:47.689Z,145.60
2023-06-29T10:53:47.813Z,151.38
2023-06-29T10:54:47.968Z,149.83
2023-06-29T10:55:47.826Z,148.57
2023-06-29T10:56:47.878Z,146.83
2023-06-29T10:57:48.027Z,153.97
2023-06-29T10:58:47.925Z,159.91
2023-06-29T10:59:48.711Z,162.71
2023-06-29T11:00:48.242Z,162.45
2023-06-29T11:01:48.128Z,165.80
2023-06-29T11:02:48.318Z,160.14
2023-06-29T11:03:48.210Z,159.36
2023-06-29T11:04:48.245Z,151.11
2023-06-29T11:05:48.300Z,150.77
2023-06-29T11:06:48.362Z,146.48
2023-06-29T11:07:48.420Z,155.60
2023-06-29T11:08:48.398Z,161.65
2023-06-29T11:09:48.411Z,155.95
2023-06-29T11:10:48.485Z,152.24
2023-06-29T11:11:48.536Z,155.05
2023-06-29T11:12:48.588Z,161.41
2023-06-29T11:13:48.562Z,164.95
2023-06-29T11:14:49.642Z,166.06
2023-06-29T11:15:48.842Z,171.41
2023-06-29T11:16:48.999Z,179.29
2023-06-29T11:17:48.594Z,179.62
2023-06-29T11:18:48.595Z,176.00
2023-06-29T11:19:48.593Z,165.88
2023-06-29T11:20:48.537Z,167.48
2023-06-29T11:21:48.600Z,163.07
2023-06-29T11:22:48.537Z,158.97
2023-06-29T11:23:48.576Z,159.54
2023-06-29T11:24:48.784Z,151.14
2023-06-29T11:25:48.528Z,149.86
2023-06-29T11:26:48.518Z,145.31
2023-06-29T11:27:48.472Z,148.08
2023-06-29T11:28:48.518Z,152.34
2023-06-29T11:29:48.487Z,160.58
2023-06-29T11:30:50.943Z,160.69
2023-06-29T11:31:48.537Z,160.81
2023-06-29T11:32:48.503Z,148.31
2023-06-29T11:33:48.459Z,135.01
2023-06-29T11:34:48.519Z,154.06
2023-06-29T11:35:48.567Z,153.19
2023-06-29T11:36:59.765Z,155.86
2023-06-29T11:37:49.466Z,156.10
2023-06-29T11:38:48.430Z,156.15
2023-06-29T11:39:48.592Z,159.63
2023-06-29T11:40:48.459Z,155.44
2023-06-29T11:41:48.415Z,160.52
2023-06-29T11:42:48.551Z,162.69
2023-06-29T11:43:48.414Z,165.30
2023-06-29T11:44:48.384Z,165.22
2023-06-29T11:45:48.762Z,170.77
2023-06-29T11:46:54.838Z,150.47
2023-06-29T11:47:49.526Z,143.35
2023-06-29T11:48:48.545Z,149.20
2023-06-29T11:49:48.492Z,152.92
2023-06-29T11:50:48.524Z,150.30
2023-06-29T11:51:48.525Z,129.66
2023-06-29T11:52:48.522Z,136.18
2023-06-29T11:53:48.522Z,141.99
2023-06-29T11:54:48.475Z,133.99
2023-06-29T11:55:48.545Z,138.62
2023-06-29T11:56:48.564Z,135.22
2023-06-29T11:57:48.612Z,122.81
2023-06-29T11:58:48.656Z,115.21
2023-06-29T11:59:48.724Z,112.37
2023-06-29T12:00:48.900Z,111.84
2023-06-29T12:01:48.772Z,106.08
2023-06-29T12:02:48.882Z,113.00
2023-06-29T12:03:48.971Z,115.98
2023-06-29T12:04:48.988Z,118.71
2023-06-29T12:05:50.422Z,112.38
2023-06-29T12:06:49.002Z,113.08
2023-06-29T12:07:49.245Z,102.67
2023-06-29T12:08:49.090Z,100.24
2023-06-29T12:09:49.103Z,82.63
2023-06-29T12:10:49.102Z,84.68
2023-06-29T12:11:49.168Z,97.77
2023-06-29T12:12:49.169Z,95.51
2023-06-29T12:13:49.229Z,90.90
2023-06-29T12:14:49.230Z,88.48
2023-06-29T12:18:49.646Z,92.07
2023-06-29T12:20:08.459Z,94.98
2023-06-29T12:20:50.393Z,95.20
2023-06-29T12:21:51.418Z,86.11
2023-06-29T12:22:49.199Z,83.53
2023-06-29T12:23:49.237Z,86.42
2023-06-29T12:24:49.236Z,82.41
2023-06-29T12:25:49.445Z,59.08
2023-06-29T12:26:49.258Z,75.64
2023-06-29T12:27:49.261Z,75.91
2023-06-29T12:28:49.346Z,83.22
2023-06-29T12:29:49.284Z,79.62
2023-06-29T12:30:49.428Z,64.52
2023-06-29T12:31:49.331Z,65.47
2023-06-29T12:32:49.344Z,71.01
2023-06-29T12:33:49.319Z,76.41
2023-06-29T12:34:50.949Z,66.72
2023-06-29T12:35:49.628Z,64.28
2023-06-29T12:36:49.367Z,65.75
2023-06-29T12:37:49.281Z,54.06
2023-06-29T12:38:49.264Z,46.52
2023-06-29T12:39:49.266Z,58.38
2023-06-29T12:40:49.322Z,55.44
2023-06-29T12:41:49.318Z,41.00
2023-06-29T12:42:49.259Z,45.67
2023-06-29T12:43:49.275Z,56.83
2023-06-29T12:44:49.244Z,47.94
2023-06-29T12:45:49.304Z,46.48
2023-06-29T12:46:49.468Z,46.55
2023-06-29T12:47:49.332Z,46.76
2023-06-29T12:48:49.254Z,39.63
2023-06-29T12:49:49.242Z,38.39
2023-06-29T12:50:49.372Z,47.86
2023-06-29T12:51:49.344Z,56.64
2023-06-29T12:52:49.293Z,44.67
2023-06-29T12:53:49.228Z,55.27
2023-06-29T12:54:49.254Z,57.29
2023-06-29T12:55:49.541Z,45.63
2023-06-29T12:56:49.214Z,45.16
2023-06-29T12:57:49.241Z,51.85
2023-06-29T12:58:49.230Z,41.71